Time;durP1;ratioP1;P1;durP2;ratioP2;P2;SDS_P1;SDS_P2;PMS_P1;PMS_P2;Temp;Humidity;BMP_temperature;BMP_pressure;BME280_temperature;BME280_humidity;BME280_pressure;Samples;Min_cycle;Max_cycle;Signal;HPM_P1;HPM_P2
2023/04/11 00:02:17;;;;;;;1.20;0.70;;;;;;;;;;5026628;28;57706;-71
2023/04/11 00:04:43;;;;;;;0.60;0.50;;;;;;;;;;5028130;28;58760;-70
2023/04/11 00:07:08;;;;;;;0.50;0.50;;;;;;;;;;5025824;28;58090;-71
2023/04/11 00:09:33;;;;;;;0.67;0.60;;;;;;;;;;5028824;28;58943;-71
2023/04/11 00:12:00;;;;;;;0.70;0.70;;;;;;;;;;5026947;28;57876;-71
2023/04/11 00:14:27;;;;;;;0.75;0.75;;;;;;;;;;5028442;28;58179;-69
2023/04/11 00:16:56;;;;;;;0.80;0.77;;;;;;;;;;5023657;28;58343;-71
2023/04/11 00:19:22;;;;;;;0.60;0.60;;;;;;;;;;5027636;28;59420;-70
2023/04/11 00:21:47;;;;;;;0.70;0.68;;;;;;;;;;5027588;28;58120;-70
2023/04/11 00:24:12;;;;;;;0.52;0.52;;;;;;;;;;5027358;28;57746;-71
2023/04/11 00:26:38;;;;;;;0.50;0.50;;;;;;;;;;5026321;28;58824;-71
2023/04/11 00:29:03;;;;;;;0.70;0.70;;;;;;;;;;5028683;28;57964;-71
2023/04/11 00:31:28;;;;;;;1.85;0.50;;;;;;;;;;5027821;28;57400;-70
2023/04/11 00:33:53;;;;;;;0.98;0.75;;;;;;;;;;5028899;28;58171;-71
2023/04/11 00:36:18;;;;;;;0.40;0.40;;;;;;;;;;5028069;28;57922;-70
2023/04/11 00:38:45;;;;;;;0.40;0.40;;;;;;;;;;5025213;28;57952;-70
2023/04/11 00:41:10;;;;;;;1.27;0.60;;;;;;;;;;5027033;27;57957;-71
2023/04/11 00:43:35;;;;;;;0.70;0.63;;;;;;;;;;5029781;28;58522;-71
2023/04/11 00:46:00;;;;;;;1.60;0.63;;;;;;;;;;5027047;28;58642;-71
2023/04/11 00:48:27;;;;;;;0.63;0.50;;;;;;;;;;5028259;28;58255;-71
2023/04/11 00:50:52;;;;;;;0.70;0.40;;;;;;;;;;5024733;28;58917;-70
2023/04/11 00:53:18;;;;;;;0.60;0.60;;;;;;;;;;5027695;28;58596;-70
2023/04/11 00:55:43;;;;;;;0.53;0.47;;;;;;;;;;5016925;28;58288;-71
2023/04/11 00:58:08;;;;;;;0.40;0.40;;;;;;;;;;5005131;28;57872;-71
2023/04/11 01:00:34;;;;;;;0.83;0.60;;;;;;;;;;5027584;28;58250;-71
2023/04/11 01:02:59;;;;;;;0.65;0.50;;;;;;;;;;5025236;28;58842;-70
2023/04/11 01:05:25;;;;;;;1.95;0.70;;;;;;;;;;5026878;28;57811;-70
2023/04/11 01:07:51;;;;;;;2.38;0.70;;;;;;;;;;5028310;28;57919;-70
2023/04/11 01:10:16;;;;;;;0.45;0.40;;;;;;;;;;5028591;28;58345;-70
2023/04/11 01:12:42;;;;;;;0.50;0.47;;;;;;;;;;5024922;28;58077;-71
2023/04/11 01:15:08;;;;;;;0.80;0.55;;;;;;;;;;5028295;28;58097;-70
2023/04/11 01:17:33;;;;;;;0.75;0.40;;;;;;;;;;5027588;27;58333;-71
2023/04/11 01:19:59;;;;;;;0.60;0.52;;;;;;;;;;5024724;28;58139;-70
2023/04/11 01:22:24;;;;;;;0.80;0.52;;;;;;;;;;5022591;28;57862;-71
2023/04/11 01:24:50;;;;;;;0.43;0.43;;;;;;;;;;5024945;28;58510;-70
2023/04/11 01:27:15;;;;;;;0.50;0.40;;;;;;;;;;5024275;28;57837;-71
2023/04/11 01:29:40;;;;;;;0.43;0.40;;;;;;;;;;5022254;28;58572;-69
2023/04/11 01:32:05;;;;;;;0.22;0.22;;;;;;;;;;5022570;28;58349;-70
2023/04/11 01:34:32;;;;;;;0.60;0.30;;;;;;;;;;5025481;28;57817;-71
2023/04/11 01:36:57;;;;;;;0.43;0.43;;;;;;;;;;5022773;28;58647;-71
2023/04/11 01:39:22;;;;;;;0.30;0.30;;;;;;;;;;5025027;28;57923;-70
2023/04/11 01:41:47;;;;;;;0.47;0.45;;;;;;;;;;5022956;28;58376;-70
2023/04/11 01:44:13;;;;;;;0.85;0.47;;;;;;;;;;5022347;28;58204;-70
2023/04/11 01:46:38;;;;;;;1.80;0.23;;;;;;;;;;5023284;28;57844;-71
2023/04/11 01:49:05;;;;;;;0.37;0.30;;;;;;;;;;5020991;28;58369;-70
2023/04/11 01:51:30;;;;;;;0.30;0.30;;;;;;;;;;5022932;28;58240;-70
2023/04/11 01:53:55;;;;;;;0.30;0.30;;;;;;;;;;5021562;28;58213;-70
2023/04/11 01:56:20;;;;;;;0.50;0.40;;;;;;;;;;5023419;28;58400;-71
2023/04/11 01:58:46;;;;;;;1.07;0.50;;;;;;;;;;5022531;28;57943;-71
2023/04/11 02:01:12;;;;;;;0.70;0.37;;;;;;;;;;5022768;28;57868;-71
2023/04/11 02:03:37;;;;;;;0.50;0.40;;;;;;;;;;5023437;28;58116;-70
2023/04/11 02:06:02;;;;;;;0.40;0.28;;;;;;;;;;5022756;28;58544;-70
2023/04/11 02:08:27;;;;;;;0.30;0.30;;;;;;;;;;5023020;28;58751;-70
2023/04/11 02:10:53;;;;;;;0.30;0.30;;;;;;;;;;5024457;28;59057;-70
2023/04/11 02:13:18;;;;;;;0.55;0.43;;;;;;;;;;5025351;28;58063;-71
2023/04/11 02:15:43;;;;;;;0.37;0.37;;;;;;;;;;5021665;28;58434;-71
2023/04/11 02:18:08;;;;;;;0.30;0.30;;;;;;;;;;5025341;28;57868;-71
2023/04/11 02:20:36;;;;;;;0.20;0.20;;;;;;;;;;5024215;28;57771;-71
2023/04/11 02:23:03;;;;;;;0.83;0.40;;;;;;;;;;5021271;28;58050;-71
2023/04/11 02:25:28;;;;;;;0.30;0.30;;;;;;;;;;5025250;28;57844;-70
2023/04/11 02:27:53;;;;;;;0.30;0.30;;;;;;;;;;5024796;28;58182;-71
2023/04/11 02:30:18;;;;;;;0.25;0.25;;;;;;;;;;5026543;28;58928;-69
2023/04/11 02:32:45;;;;;;;0.57;0.30;;;;;;;;;;5027078;28;58457;-70
2023/04/11 02:35:10;;;;;;;0.40;0.40;;;;;;;;;;5025011;28;58643;-70
2023/04/11 02:37:36;;;;;;;0.55;0.55;;;;;;;;;;5024535;28;58073;-71
2023/04/11 02:40:02;;;;;;;0.55;0.45;;;;;;;;;;5023512;28;58184;-70
2023/04/11 02:42:27;;;;;;;0.75;0.50;;;;;;;;;;5026704;28;58405;-70
2023/04/11 02:44:54;;;;;;;0.80;0.38;;;;;;;;;;5023708;28;57633;-70
2023/04/11 02:47:19;;;;;;;0.20;0.20;;;;;;;;;;5026089;28;57692;-71
2023/04/11 02:49:44;;;;;;;0.45;0.43;;;;;;;;;;5023086;28;58458;-70
2023/04/11 02:52:09;;;;;;;0.50;0.50;;;;;;;;;;5026826;28;58018;-70
2023/04/11 02:54:34;;;;;;;0.30;0.30;;;;;;;;;;5025132;28;58372;-71
2023/04/11 02:57:00;;;;;;;0.68;0.38;;;;;;;;;;5026001;28;58380;-70
2023/04/11 02:59:26;;;;;;;0.47;0.30;;;;;;;;;;5025933;28;58035;-71
2023/04/11 03:01:55;;;;;;;0.50;0.40;;;;;;;;;;5025370;28;57812;-69
2023/04/11 03:04:21;;;;;;;0.32;0.32;;;;;;;;;;5025639;28;58102;-71
2023/04/11 03:06:46;;;;;;;0.30;0.30;;;;;;;;;;5026130;28;58178;-70
2023/04/11 03:09:11;;;;;;;0.55;0.30;;;;;;;;;;5024664;28;57867;-71
2023/04/11 03:11:36;;;;;;;0.47;0.47;;;;;;;;;;5024310;28;57719;-70
2023/04/11 03:14:01;;;;;;;0.20;0.20;;;;;;;;;;5026261;28;58033;-70
2023/04/11 03:16:27;;;;;;;0.22;0.22;;;;;;;;;;5027112;28;57860;-70
2023/04/11 03:18:52;;;;;;;0.30;0.30;;;;;;;;;;5026010;28;57892;-70
2023/04/11 03:21:17;;;;;;;0.60;0.40;;;;;;;;;;5023127;28;58029;-71
2023/04/11 03:23:42;;;;;;;0.37;0.37;;;;;;;;;;5026218;28;57868;-71
2023/04/11 03:26:08;;;;;;;0.25;0.20;;;;;;;;;;5022808;28;57870;-70
2023/04/11 03:28:33;;;;;;;0.20;0.20;;;;;;;;;;5023956;28;58823;-71
2023/04/11 03:30:58;;;;;;;0.20;0.20;;;;;;;;;;5025498;28;58116;-71
2023/04/11 03:33:23;;;;;;;0.23;0.20;;;;;;;;;;5024217;28;58067;-70
2023/04/11 03:35:48;;;;;;;0.33;0.30;;;;;;;;;;5024179;28;58143;-71
2023/04/11 03:38:13;;;;;;;0.20;0.20;;;;;;;;;;5026513;28;58090;-70
2023/04/11 03:40:39;;;;;;;0.20;0.20;;;;;;;;;;5023833;28;57885;-70
2023/04/11 03:43:04;;;;;;;1.10;0.30;;;;;;;;;;5024929;28;58532;-71
2023/04/11 03:45:29;;;;;;;0.45;0.45;;;;;;;;;;5025696;28;57998;-70
2023/04/11 03:47:55;;;;;;;0.32;0.32;;;;;;;;;;5024907;28;58239;-71
2023/04/11 03:50:20;;;;;;;0.77;0.23;;;;;;;;;;5026546;28;58434;-71
2023/04/11 03:52:45;;;;;;;0.20;0.20;;;;;;;;;;5024338;28;57967;-70
2023/04/11 03:55:11;;;;;;;0.30;0.30;;;;;;;;;;5024102;28;58238;-70
2023/04/11 03:57:36;;;;;;;0.70;0.30;;;;;;;;;;5024067;28;58603;-70
2023/04/11 04:00:04;;;;;;;0.20;0.20;;;;;;;;;;5023863;28;60210;-71
2023/04/11 04:02:29;;;;;;;0.40;0.40;;;;;;;;;;5024349;28;58144;-71
2023/04/11 04:04:54;;;;;;;0.20;0.20;;;;;;;;;;5024990;28;59313;-71
2023/04/11 04:07:21;;;;;;;0.10;0.10;;;;;;;;;;5020285;28;57816;-71
2023/04/11 04:09:46;;;;;;;0.80;0.30;;;;;;;;;;5026885;28;58346;-71
2023/04/11 04:12:11;;;;;;;0.30;0.30;;;;;;;;;;5025278;28;57800;-71
2023/04/11 04:14:36;;;;;;;0.45;0.40;;;;;;;;;;5027900;28;58354;-71
2023/04/11 04:17:02;;;;;;;0.33;0.10;;;;;;;;;;5027175;28;59092;-70
2023/04/11 04:19:27;;;;;;;0.53;0.10;;;;;;;;;;5022658;28;58129;-71
2023/04/11 04:21:52;;;;;;;0.10;0.10;;;;;;;;;;5002102;28;57976;-70
2023/04/11 04:24:17;;;;;;;0.40;0.20;;;;;;;;;;5009395;28;58359;-70
2023/04/11 04:26:44;;;;;;;0.20;0.20;;;;;;;;;;5008344;28;58156;-71
2023/04/11 04:29:11;;;;;;;0.55;0.20;;;;;;;;;;5006003;28;58383;-70
2023/04/11 04:31:37;;;;;;;0.30;0.30;;;;;;;;;;5006134;28;59104;-70
2023/04/11 04:34:07;;;;;;;0.13;0.13;;;;;;;;;;5008005;28;57938;-70
2023/04/11 04:36:32;;;;;;;0.10;0.10;;;;;;;;;;5009198;28;57583;-70
2023/04/11 04:39:00;;;;;;;0.40;0.40;;;;;;;;;;5007036;28;58224;-70
2023/04/11 04:41:35;;;;;;;;;;;;;;;;;;5008082;28;58123;-70
2023/04/11 04:44:03;;;;;;;0.20;0.20;;;;;;;;;;5007135;28;58226;-71
2023/04/11 04:46:30;;;;;;;;;;;;;;;;;;5007915;28;57925;-70
2023/04/11 04:48:55;;;;;;;0.17;0.17;;;;;;;;;;5007246;28;58285;-70
2023/04/11 04:51:21;;;;;;;0.08;0.05;;;;;;;;;;5006194;28;58191;-71
2023/04/11 04:53:46;;;;;;;0.20;0.20;;;;;;;;;;5008155;28;58417;-70
2023/04/11 04:56:11;;;;;;;0.90;0.20;;;;;;;;;;5018038;28;58156;-71
2023/04/11 04:58:37;;;;;;;0.10;0.10;;;;;;;;;;5028460;28;58254;-70
2023/04/11 05:01:02;;;;;;;0.10;0.10;;;;;;;;;;5025127;28;57859;-70
2023/04/11 05:03:27;;;;;;;0.30;0.10;;;;;;;;;;5028103;28;57978;-71
2023/04/11 05:05:52;;;;;;;0.20;0.10;;;;;;;;;;5025830;28;57899;-70
2023/04/11 05:08:19;;;;;;;0.08;0.08;;;;;;;;;;5028308;28;58207;-69
2023/04/11 05:10:44;;;;;;;0.32;0.30;;;;;;;;;;5029137;28;57563;-71
2023/04/11 05:13:09;;;;;;;0.50;0.10;;;;;;;;;;5022103;28;58227;-71
2023/04/11 05:15:35;;;;;;;0.20;0.20;;;;;;;;;;5028516;28;58272;-69
2023/04/11 05:18:00;;;;;;;0.20;0.20;;;;;;;;;;5009133;28;57932;-71
2023/04/11 05:20:28;;;;;;;0.27;0.27;;;;;;;;;;5006574;28;58000;-71
2023/04/11 05:22:53;;;;;;;0.20;0.20;;;;;;;;;;5009978;28;58682;-71
2023/04/11 05:25:18;;;;;;;0.57;0.50;;;;;;;;;;5026467;28;57765;-70
2023/04/11 05:27:44;;;;;;;0.20;0.10;;;;;;;;;;5028130;28;57899;-70
2023/04/11 05:30:09;;;;;;;0.10;0.10;;;;;;;;;;5026788;28;57652;-71
2023/04/11 05:32:34;;;;;;;0.10;0.10;;;;;;;;;;5027997;27;58204;-71
2023/04/11 05:34:59;;;;;;;1.70;0.30;;;;;;;;;;5024856;27;58250;-70
2023/04/11 05:37:25;;;;;;;1.02;0.20;;;;;;;;;;5027633;28;58251;-71
2023/04/11 05:39:55;;;;;;;0.17;0.10;;;;;;;;;;5025274;28;57766;-70
2023/04/11 05:42:20;;;;;;;0.20;0.20;;;;;;;;;;5027911;28;58176;-71
2023/04/11 05:44:45;;;;;;;0.22;0.10;;;;;;;;;;5022872;28;58539;-71
2023/04/11 05:47:10;;;;;;;0.43;0.17;;;;;;;;;;5024487;28;58128;-70
2023/04/11 05:49:36;;;;;;;0.25;0.25;;;;;;;;;;5026936;28;58053;-69
2023/04/11 05:52:01;;;;;;;0.27;0.27;;;;;;;;;;5025085;28;58664;-70
2023/04/11 05:54:30;;;;;;;0.65;0.30;;;;;;;;;;5027384;28;57992;-71
2023/04/11 05:56:55;;;;;;;1.00;0.57;;;;;;;;;;5019721;28;58345;-71
2023/04/11 05:59:22;;;;;;;0.30;0.30;;;;;;;;;;5023788;28;57878;-71
2023/04/11 06:01:49;;;;;;;0.40;0.10;;;;;;;;;;5024304;28;57804;-70
2023/04/11 06:04:14;;;;;;;0.30;0.30;;;;;;;;;;5024341;28;58041;-71
2023/04/11 06:06:40;;;;;;;0.75;0.10;;;;;;;;;;5019756;28;58559;-70
2023/04/11 06:09:07;;;;;;;0.20;0.20;;;;;;;;;;5024301;28;58209;-70
2023/04/11 06:11:33;;;;;;;0.20;0.20;;;;;;;;;;5024014;28;57935;-70
2023/04/11 06:13:58;;;;;;;0.10;0.10;;;;;;;;;;5023165;28;58346;-70
2023/04/11 06:16:23;;;;;;;0.25;0.20;;;;;;;;;;5025027;28;58193;-70
2023/04/11 06:18:48;;;;;;;2.47;0.40;;;;;;;;;;5025613;28;57824;-70
2023/04/11 06:21:13;;;;;;;0.20;0.20;;;;;;;;;;5027768;28;57717;-70
2023/04/11 06:23:38;;;;;;;0.77;0.20;;;;;;;;;;5027334;28;57879;-70
2023/04/11 06:26:04;;;;;;;1.27;0.20;;;;;;;;;;5027118;28;57503;-71
2023/04/11 06:28:29;;;;;;;1.58;0.40;;;;;;;;;;5025597;28;57371;-71
2023/04/11 06:30:54;;;;;;;0.20;0.20;;;;;;;;;;5023924;28;59325;-71
2023/04/11 06:33:19;;;;;;;1.67;0.70;;;;;;;;;;5027611;28;58353;-67
2023/04/11 06:35:45;;;;;;;0.40;0.30;;;;;;;;;;5025816;28;58101;-68
2023/04/11 06:38:10;;;;;;;0.68;0.40;;;;;;;;;;5023834;28;58877;-70
2023/04/11 06:40:35;;;;;;;5.28;0.90;;;;;;;;;;5024130;28;57959;-67
2023/04/11 06:43:00;;;;;;;0.77;0.57;;;;;;;;;;5025306;28;58289;-70
2023/04/11 06:45:25;;;;;;;1.63;0.73;;;;;;;;;;5025465;28;57982;-69
2023/04/11 06:47:51;;;;;;;1.70;1.00;;;;;;;;;;5027066;28;58547;-66
2023/04/11 06:50:16;;;;;;;2.20;0.50;;;;;;;;;;5025223;28;58420;-70
2023/04/11 06:52:41;;;;;;;0.90;0.60;;;;;;;;;;5025689;28;57688;-70
2023/04/11 06:55:07;;;;;;;0.90;0.55;;;;;;;;;;5026036;28;58124;-70
2023/04/11 06:57:32;;;;;;;3.90;0.65;;;;;;;;;;5024771;28;58597;-70
2023/04/11 06:59:58;;;;;;;1.70;0.63;;;;;;;;;;5022447;28;58379;-70
2023/04/11 07:02:24;;;;;;;0.38;0.20;;;;;;;;;;5026182;28;58591;-70
2023/04/11 07:04:50;;;;;;;1.13;0.47;;;;;;;;;;5021694;28;57843;-70
2023/04/11 07:07:15;;;;;;;2.35;0.43;;;;;;;;;;5024756;28;58457;-70
2023/04/11 07:09:42;;;;;;;6.20;1.63;;;;;;;;;;5026585;28;58251;-70
2023/04/11 07:12:07;;;;;;;4.88;0.50;;;;;;;;;;5019806;28;57731;-70
2023/04/11 07:14:32;;;;;;;2.30;0.40;;;;;;;;;;5024320;28;58237;-70
2023/04/11 07:16:57;;;;;;;1.33;0.47;;;;;;;;;;5023621;28;58099;-70
2023/04/11 07:19:22;;;;;;;0.97;0.43;;;;;;;;;;5026811;28;57431;-70
2023/04/11 07:21:48;;;;;;;1.50;0.47;;;;;;;;;;5024233;28;58274;-70
2023/04/11 07:24:13;;;;;;;1.35;0.63;;;;;;;;;;5025706;28;57842;-71
2023/04/11 07:26:41;;;;;;;4.07;1.07;;;;;;;;;;5026513;28;58100;-70
2023/04/11 07:29:06;;;;;;;1.03;0.40;;;;;;;;;;5024978;28;58546;-70
2023/04/11 07:31:31;;;;;;;1.65;0.52;;;;;;;;;;5025322;28;57967;-70
2023/04/11 07:33:57;;;;;;;1.17;0.47;;;;;;;;;;5025159;28;58482;-70
2023/04/11 07:36:22;;;;;;;7.93;0.70;;;;;;;;;;5025831;28;57990;-70
2023/04/11 07:38:47;;;;;;;1.83;0.90;;;;;;;;;;5025093;28;58254;-70
2023/04/11 07:41:12;;;;;;;3.40;0.90;;;;;;;;;;5027019;28;57965;-71
2023/04/11 07:43:38;;;;;;;0.60;0.30;;;;;;;;;;5025834;28;58859;-71
2023/04/11 07:46:03;;;;;;;2.72;0.55;;;;;;;;;;5025877;28;58375;-70
2023/04/11 07:48:29;;;;;;;0.40;0.40;;;;;;;;;;5028679;28;58119;-70
2023/04/11 07:50:54;;;;;;;1.95;0.90;;;;;;;;;;5029979;28;58038;-70
2023/04/11 07:53:20;;;;;;;4.17;0.50;;;;;;;;;;5027680;28;58359;-71
2023/04/11 07:55:45;;;;;;;2.03;0.30;;;;;;;;;;5029200;28;57877;-70
2023/04/11 07:58:10;;;;;;;1.10;0.33;;;;;;;;;;5028061;28;57634;-70
2023/04/11 08:00:35;;;;;;;3.60;1.40;;;;;;;;;;5029743;28;57632;-68
2023/04/11 08:03:04;;;;;;;0.93;0.93;;;;;;;;;;5027714;28;59519;-70
2023/04/11 08:05:29;;;;;;;5.60;0.40;;;;;;;;;;5026237;28;58269;-70
2023/04/11 08:07:55;;;;;;;2.80;0.45;;;;;;;;;;5027725;28;58440;-65
2023/04/11 08:10:20;;;;;;;2.67;0.50;;;;;;;;;;5028173;28;58159;-68
2023/04/11 08:12:45;;;;;;;1.60;0.52;;;;;;;;;;5030044;28;57856;-64
2023/04/11 08:15:10;;;;;;;3.33;0.60;;;;;;;;;;5027951;28;58357;-70
2023/04/11 08:17:37;;;;;;;1.80;0.40;;;;;;;;;;5027641;28;59026;-69
2023/04/11 08:20:08;;;;;;;1.30;0.30;;;;;;;;;;5027023;27;57895;-72
2023/04/11 08:22:33;;;;;;;1.75;0.45;;;;;;;;;;5027855;28;58274;-71
2023/04/11 08:24:58;;;;;;;1.52;0.77;;;;;;;;;;5024438;28;58191;-67
2023/04/11 08:27:23;;;;;;;2.58;0.82;;;;;;;;;;5028145;28;57821;-73
2023/04/11 08:29:48;;;;;;;2.33;0.33;;;;;;;;;;5026962;28;58350;-71
2023/04/11 08:32:13;;;;;;;1.15;0.70;;;;;;;;;;5027156;28;57756;-72
2023/04/11 08:34:38;;;;;;;1.83;0.75;;;;;;;;;;5028531;28;58174;-72
2023/04/11 08:37:04;;;;;;;2.55;0.30;;;;;;;;;;5027434;28;58044;-71
2023/04/11 08:39:29;;;;;;;0.13;0.10;;;;;;;;;;5028911;28;57935;-72
2023/04/11 08:41:54;;;;;;;0.63;0.30;;;;;;;;;;5025802;28;58295;-71
2023/04/11 08:44:20;;;;;;;3.10;0.30;;;;;;;;;;5028592;28;57846;-71
2023/04/11 08:46:45;;;;;;;2.03;0.60;;;;;;;;;;5025326;28;58490;-72
2023/04/11 08:49:10;;;;;;;0.10;0.10;;;;;;;;;;5025259;28;57962;-72
2023/04/11 08:51:35;;;;;;;0.87;0.50;;;;;;;;;;5028074;28;57783;-72
2023/04/11 08:54:04;;;;;;;1.43;0.40;;;;;;;;;;5027524;28;57685;-72
2023/04/11 08:56:29;;;;;;;0.73;0.40;;;;;;;;;;5027790;28;58096;-72
2023/04/11 08:58:55;;;;;;;0.50;0.47;;;;;;;;;;5026186;28;58206;-70
2023/04/11 09:01:33;;;;;;;0.37;0.13;;;;;;;;;;5026026;27;59497;-71
2023/04/11 09:04:03;;;;;;;2.08;0.32;;;;;;;;;;5026637;28;58114;-71
2023/04/11 09:06:29;;;;;;;0.32;0.22;;;;;;;;;;5027524;28;58124;-73
2023/04/11 09:09:09;;;;;;;0.88;0.30;;;;;;;;;;5027019;28;58106;-66
2023/04/11 09:11:51;;;;;;;0.85;0.30;;;;;;;;;;5026955;28;57919;-67
2023/04/11 09:14:16;;;;;;;0.85;0.20;;;;;;;;;;5025770;28;57825;-71
2023/04/11 09:16:58;;;;;;;2.10;0.40;;;;;;;;;;5025774;28;58724;-71
2023/04/11 09:19:23;;;;;;;1.63;0.30;;;;;;;;;;5028137;28;58101;-72
2023/04/11 09:21:49;;;;;;;1.63;0.13;;;;;;;;;;5026774;28;58181;-71
2023/04/11 09:24:15;;;;;;;2.60;0.55;;;;;;;;;;5027443;28;57808;-71
2023/04/11 09:26:40;;;;;;;1.17;0.20;;;;;;;;;;5027012;28;58288;-72
2023/04/11 09:29:05;;;;;;;1.03;0.37;;;;;;;;;;5025493;28;57629;-72
2023/04/11 09:31:44;;;;;;;0.30;0.30;;;;;;;;;;5027751;28;58364;-72
2023/04/11 09:34:10;;;;;;;2.15;1.23;;;;;;;;;;5028157;28;58343;-72
2023/04/11 09:36:35;;;;;;;0.20;0.20;;;;;;;;;;5027063;28;58117;-72
2023/04/11 09:39:14;;;;;;;3.90;0.47;;;;;;;;;;5027327;28;58000;-75
2023/04/11 09:41:40;;;;;;;2.83;0.40;;;;;;;;;;5027254;28;58213;-67
2023/04/11 09:44:05;;;;;;;2.70;0.22;;;;;;;;;;5027399;28;58266;-74
2023/04/11 09:46:30;;;;;;;0.53;0.30;;;;;;;;;;5026731;28;59227;-74
2023/04/11 09:48:56;;;;;;;2.33;0.73;;;;;;;;;;5024341;28;58250;-69
2023/04/11 09:51:21;;;;;;;5.72;0.95;;;;;;;;;;5027684;28;57653;-70
2023/04/11 09:53:46;;;;;;;5.65;0.85;;;;;;;;;;5026344;28;58910;-71
2023/04/11 09:56:12;;;;;;;7.10;0.50;;;;;;;;;;5025875;28;58435;-69
2023/04/11 09:58:38;;;;;;;11.47;1.80;;;;;;;;;;5027627;28;57688;-73
2023/04/11 10:01:06;;;;;;;6.13;0.50;;;;;;;;;;5026352;28;58403;-72
2023/04/11 10:03:35;;;;;;;4.15;0.30;;;;;;;;;;5026219;28;58079;-72
2023/04/11 10:06:02;;;;;;;3.78;1.38;;;;;;;;;;5027529;28;57991;-72
2023/04/11 10:08:30;;;;;;;2.28;0.55;;;;;;;;;;5023278;28;59876;-72
2023/04/11 10:10:56;;;;;;;1.92;0.60;;;;;;;;;;5025171;28;57884;-72
2023/04/11 10:13:34;;;;;;;0.77;0.35;;;;;;;;;;5023502;28;58493;-72
2023/04/11 10:16:08;;;;;;;0.73;0.40;;;;;;;;;;5023597;28;57976;-73
2023/04/11 10:18:37;;;;;;;1.95;0.17;;;;;;;;;;5027072;28;57702;-73
2023/04/11 10:21:03;;;;;;;0.82;0.52;;;;;;;;;;5023634;28;58157;-72
2023/04/11 10:23:28;;;;;;;1.92;0.50;;;;;;;;;;5025496;28;58091;-73
2023/04/11 10:25:54;;;;;;;0.57;0.40;;;;;;;;;;5027611;28;57946;-73
2023/04/11 10:28:33;;;;;;;3.85;0.40;;;;;;;;;;5027631;28;57916;-72
2023/04/11 10:31:00;;;;;;;1.33;0.47;;;;;;;;;;5026964;27;58050;-72
2023/04/11 10:33:26;;;;;;;1.80;0.75;;;;;;;;;;5024710;28;58092;-72
2023/04/11 10:35:54;;;;;;;2.17;0.70;;;;;;;;;;5026948;28;58129;-73
2023/04/11 10:38:50;;;;;;;1.58;0.73;;;;;;;;;;5027323;28;58007;-71
2023/04/11 10:41:21;;;;;;;1.13;0.32;;;;;;;;;;5021516;28;59278;-72
2023/04/11 10:43:47;;;;;;;0.50;0.40;;;;;;;;;;5024862;28;58617;-72
2023/04/11 10:46:22;;;;;;;1.77;0.38;;;;;;;;;;5027933;28;58082;-72
2023/04/11 10:48:58;;;;;;;3.22;0.57;;;;;;;;;;5026053;28;58116;-75
2023/04/11 10:51:25;;;;;;;0.77;0.22;;;;;;;;;;5026859;28;58124;-76
2023/04/11 10:53:51;;;;;;;1.42;0.40;;;;;;;;;;5026576;28;58924;-76
2023/04/11 10:56:36;;;;;;;0.70;0.40;;;;;;;;;;5023515;28;58860;-75
2023/04/11 10:59:01;;;;;;;1.55;0.60;;;;;;;;;;5024309;28;58264;-78
2023/04/11 11:01:26;;;;;;;0.65;0.32;;;;;;;;;;5027046;28;58178;-78
2023/04/11 11:03:53;;;;;;;0.80;0.47;;;;;;;;;;5024877;28;58865;-74
2023/04/11 11:06:18;;;;;;;3.88;0.52;;;;;;;;;;5025456;28;57892;-73
2023/04/11 11:08:45;;;;;;;1.90;0.20;;;;;;;;;;5021960;28;57800;-74
2023/04/11 11:11:10;;;;;;;0.65;0.40;;;;;;;;;;5021849;28;58152;-74
2023/04/11 11:13:46;;;;;;;2.23;0.53;;;;;;;;;;5024074;28;57825;-69
2023/04/11 11:16:15;;;;;;;3.20;1.30;;;;;;;;;;5022800;28;58614;-72
2023/04/11 11:18:43;;;;;;;1.10;0.55;;;;;;;;;;5024725;28;57782;-71
2023/04/11 11:21:09;;;;;;;0.95;0.50;;;;;;;;;;5024819;28;57826;-67
2023/04/11 11:23:34;;;;;;;2.70;0.70;;;;;;;;;;5026344;28;58500;-67
2023/04/11 11:25:59;;;;;;;0.40;0.30;;;;;;;;;;5028122;28;58162;-64
2023/04/11 11:28:24;;;;;;;0.93;0.43;;;;;;;;;;5027971;28;57880;-74
2023/04/11 11:30:54;;;;;;;2.63;0.80;;;;;;;;;;5026128;28;58429;-67
2023/04/11 11:33:20;;;;;;;2.63;0.20;;;;;;;;;;5025966;28;58290;-64
2023/04/11 11:36:11;;;;;;;7.57;0.65;;;;;;;;;;5023421;28;58363;-67
2023/04/11 11:38:37;;;;;;;1.15;0.50;;;;;;;;;;5025339;28;58414;-74
2023/04/11 11:41:02;;;;;;;5.05;0.52;;;;;;;;;;5027469;28;57868;-69
2023/04/11 11:43:28;;;;;;;1.02;1.00;;;;;;;;;;5027455;28;57769;-74
2023/04/11 11:46:07;;;;;;;5.20;0.40;;;;;;;;;;5028249;28;58460;-73
2023/04/11 11:48:32;;;;;;;1.23;0.30;;;;;;;;;;5030015;28;58014;-73
2023/04/11 11:50:57;;;;;;;3.87;0.40;;;;;;;;;;5028896;28;58335;-72
2023/04/11 11:53:23;;;;;;;1.80;0.40;;;;;;;;;;5029161;28;57663;-74
2023/04/11 11:55:48;;;;;;;1.50;0.60;;;;;;;;;;5027953;28;58352;-73
2023/04/11 11:58:14;;;;;;;0.43;0.22;;;;;;;;;;5027210;28;57841;-69
2023/04/11 12:00:39;;;;;;;2.65;0.95;;;;;;;;;;5024612;28;58253;-65
2023/04/11 12:03:05;;;;;;;3.15;0.82;;;;;;;;;;5025951;28;58331;-74
2023/04/11 12:05:31;;;;;;;1.75;0.77;;;;;;;;;;5029651;28;57640;-72
2023/04/11 12:07:58;;;;;;;3.17;0.60;;;;;;;;;;5026087;28;58475;-69
2023/04/11 12:10:24;;;;;;;6.22;0.93;;;;;;;;;;5027020;28;58706;-69
2023/04/11 12:12:50;;;;;;;2.45;0.38;;;;;;;;;;5028197;28;57850;-64
2023/04/11 12:15:19;;;;;;;2.08;0.30;;;;;;;;;;5027653;28;58604;-65
2023/04/11 12:17:48;;;;;;;3.60;0.28;;;;;;;;;;5026992;28;58170;-71
2023/04/11 12:20:14;;;;;;;2.25;0.68;;;;;;;;;;5026243;28;59223;-70
2023/04/11 12:22:40;;;;;;;4.40;0.43;;;;;;;;;;5028481;28;57802;-70
2023/04/11 12:25:09;;;;;;;0.88;0.50;;;;;;;;;;5028092;28;58361;-70
2023/04/11 12:27:38;;;;;;;6.70;0.57;;;;;;;;;;5026876;28;58346;-69
2023/04/11 12:30:04;;;;;;;3.58;0.70;;;;;;;;;;5025299;28;58032;-69
2023/04/11 12:32:31;;;;;;;1.95;0.52;;;;;;;;;;5025043;28;57941;-69
2023/04/11 12:34:56;;;;;;;5.67;1.23;;;;;;;;;;5023857;28;59189;-70
2023/04/11 12:37:22;;;;;;;1.50;0.17;;;;;;;;;;5028474;28;57539;-69
2023/04/11 12:39:47;;;;;;;5.57;0.30;;;;;;;;;;5027123;28;57972;-71
2023/04/11 12:42:12;;;;;;;2.38;0.30;;;;;;;;;;5027266;28;61931;-70
2023/04/11 12:44:37;;;;;;;0.35;0.28;;;;;;;;;;5028769;28;57978;-68
2023/04/11 12:47:03;;;;;;;6.20;0.63;;;;;;;;;;5027239;28;57605;-71
2023/04/11 12:49:28;;;;;;;0.57;0.47;;;;;;;;;;5025569;28;58054;-71
2023/04/11 12:51:53;;;;;;;2.37;0.20;;;;;;;;;;5026747;28;58326;-71
2023/04/11 12:54:18;;;;;;;4.90;0.45;;;;;;;;;;5026220;28;58095;-68
2023/04/11 12:56:44;;;;;;;2.67;0.33;;;;;;;;;;5026605;28;57695;-70
2023/04/11 12:59:09;;;;;;;1.80;0.43;;;;;;;;;;5027517;28;58628;-71
2023/04/11 13:01:35;;;;;;;2.33;0.37;;;;;;;;;;5026108;28;59432;-70
2023/04/11 13:04:00;;;;;;;1.02;0.40;;;;;;;;;;5026267;28;58141;-64
2023/04/11 13:06:26;;;;;;;2.50;0.33;;;;;;;;;;5025595;28;58186;-68
2023/04/11 13:08:52;;;;;;;4.18;0.32;;;;;;;;;;5026311;28;58571;-71
2023/04/11 13:11:17;;;;;;;1.43;0.40;;;;;;;;;;5027429;28;57835;-65
2023/04/11 13:13:42;;;;;;;1.80;0.50;;;;;;;;;;5027260;28;58586;-71
2023/04/11 13:16:07;;;;;;;5.43;0.30;;;;;;;;;;5024281;28;59550;-68
2023/04/11 13:18:32;;;;;;;2.90;1.02;;;;;;;;;;5027007;28;57918;-70
2023/04/11 13:20:58;;;;;;;2.47;0.95;;;;;;;;;;5026122;28;58150;-65
2023/04/11 13:23:23;;;;;;;3.88;1.05;;;;;;;;;;5027933;28;58280;-64
2023/04/11 13:25:48;;;;;;;1.00;0.50;;;;;;;;;;5023097;28;59171;-64
2023/04/11 13:28:13;;;;;;;3.53;0.47;;;;;;;;;;5026300;28;58306;-65
2023/04/11 13:30:39;;;;;;;2.15;0.40;;;;;;;;;;5027298;28;58149;-66
2023/04/11 13:33:05;;;;;;;1.35;0.43;;;;;;;;;;5026161;28;58045;-64
2023/04/11 13:35:30;;;;;;;1.33;0.60;;;;;;;;;;5026216;28;58571;-68
2023/04/11 13:37:56;;;;;;;3.47;0.40;;;;;;;;;;5027744;28;58176;-64
2023/04/11 13:40:21;;;;;;;5.88;0.82;;;;;;;;;;5026591;28;58312;-63
2023/04/11 13:42:46;;;;;;;1.88;0.20;;;;;;;;;;5027842;28;58036;-66
2023/04/11 13:45:11;;;;;;;2.85;0.68;;;;;;;;;;5025979;28;58251;-66
2023/04/11 13:47:36;;;;;;;2.30;0.28;;;;;;;;;;5026735;28;58385;-65
2023/04/11 13:50:02;;;;;;;3.72;0.50;;;;;;;;;;5026498;28;58173;-70
2023/04/11 13:52:27;;;;;;;3.80;0.70;;;;;;;;;;5027324;28;58181;-64
2023/04/11 13:54:52;;;;;;;1.13;0.10;;;;;;;;;;5026512;28;58135;-63
2023/04/11 13:57:17;;;;;;;3.30;0.67;;;;;;;;;;5027293;28;57838;-64
2023/04/11 13:59:43;;;;;;;0.45;0.10;;;;;;;;;;5025235;27;58202;-64
2023/04/11 14:02:08;;;;;;;3.05;0.70;;;;;;;;;;5024628;28;58188;-63
2023/04/11 14:04:33;;;;;;;1.35;0.22;;;;;;;;;;5025927;28;58027;-64
2023/04/11 14:06:58;;;;;;;2.03;0.77;;;;;;;;;;5023955;28;59369;-64
2023/04/11 14:09:23;;;;;;;2.47;0.43;;;;;;;;;;5027460;28;58102;-65
2023/04/11 14:11:48;;;;;;;3.57;0.27;;;;;;;;;;5025296;28;58473;-70
2023/04/11 14:14:13;;;;;;;0.97;0.30;;;;;;;;;;5026560;28;57753;-65
2023/04/11 14:16:39;;;;;;;1.70;0.30;;;;;;;;;;5027222;28;58183;-65
2023/04/11 14:19:04;;;;;;;0.33;0.20;;;;;;;;;;5026477;28;58410;-66
2023/04/11 14:21:30;;;;;;;0.23;0.10;;;;;;;;;;5027797;28;58254;-64
2023/04/11 14:23:55;;;;;;;1.75;0.10;;;;;;;;;;5024515;28;58134;-65
2023/04/11 14:26:20;;;;;;;0.73;0.57;;;;;;;;;;5026031;28;57923;-66
2023/04/11 14:28:46;;;;;;;1.93;0.23;;;;;;;;;;5026590;28;57872;-63
2023/04/11 14:31:11;;;;;;;0.50;0.10;;;;;;;;;;5026933;28;58204;-69
2023/04/11 14:33:36;;;;;;;0.85;0.77;;;;;;;;;;5025329;28;58155;-73
2023/04/11 14:36:01;;;;;;;4.57;0.73;;;;;;;;;;5026630;27;58315;-70
2023/04/11 14:38:26;;;;;;;5.28;0.50;;;;;;;;;;5026948;28;58144;-70